sensor_id;sensor_type;location;lat;lon;timestamp;temperature;humidity
24164;DHT22;12319;49.204;8.116;2023-08-07T00:02:01;14.70;95.80
24164;DHT22;12319;49.204;8.116;2023-08-07T00:04:28;14.70;95.70
24164;DHT22;12319;49.204;8.116;2023-08-07T00:06:54;14.70;95.80
24164;DHT22;12319;49.204;8.116;2023-08-07T00:09:19;14.70;95.60
24164;DHT22;12319;49.204;8.116;2023-08-07T00:11:45;14.70;95.60
24164;DHT22;12319;49.204;8.116;2023-08-07T00:14:10;14.70;95.40
24164;DHT22;12319;49.204;8.116;2023-08-07T00:16:36;14.70;95.70
24164;DHT22;12319;49.204;8.116;2023-08-07T00:19:02;14.70;95.50
24164;DHT22;12319;49.204;8.116;2023-08-07T00:21:28;14.60;95.50
24164;DHT22;12319;49.204;8.116;2023-08-07T00:23:53;14.70;95.50
24164;DHT22;12319;49.204;8.116;2023-08-07T00:26:20;14.60;95.50
24164;DHT22;12319;49.204;8.116;2023-08-07T00:28:46;14.60;95.40
24164;DHT22;12319;49.204;8.116;2023-08-07T00:31:12;14.60;95.40
24164;DHT22;12319;49.204;8.116;2023-08-07T00:33:38;14.50;95.50
24164;DHT22;12319;49.204;8.116;2023-08-07T00:36:03;14.50;95.50
24164;DHT22;12319;49.204;8.116;2023-08-07T00:38:29;14.60;95.50
24164;DHT22;12319;49.204;8.116;2023-08-07T00:40:54;14.60;95.40
24164;DHT22;12319;49.204;8.116;2023-08-07T00:43:20;14.60;95.40
24164;DHT22;12319;49.204;8.116;2023-08-07T00:45:47;14.50;95.10
24164;DHT22;12319;49.204;8.116;2023-08-07T00:48:13;14.50;95.10
24164;DHT22;12319;49.204;8.116;2023-08-07T00:50:41;14.50;95.20
24164;DHT22;12319;49.204;8.116;2023-08-07T00:53:07;14.50;95.20
24164;DHT22;12319;49.204;8.116;2023-08-07T00:55:33;14.50;95.40
24164;DHT22;12319;49.204;8.116;2023-08-07T00:57:58;14.50;95.40
24164;DHT22;12319;49.204;8.116;2023-08-07T01:00:26;14.50;95.20
24164;DHT22;12319;49.204;8.116;2023-08-07T01:02:52;14.50;95.20
24164;DHT22;12319;49.204;8.116;2023-08-07T01:05:19;14.50;95.20
24164;DHT22;12319;49.204;8.116;2023-08-07T01:07:47;14.40;95.10
24164;DHT22;12319;49.204;8.116;2023-08-07T01:10:13;14.50;95.20
24164;DHT22;12319;49.204;8.116;2023-08-07T01:13:03;14.40;95.20
24164;DHT22;12319;49.204;8.116;2023-08-07T01:15:30;14.50;95.20
24164;DHT22;12319;49.204;8.116;2023-08-07T01:17:58;14.50;95.10
24164;DHT22;12319;49.204;8.116;2023-08-07T01:20:24;14.50;95.10
24164;DHT22;12319;49.204;8.116;2023-08-07T01:22:50;14.50;95.10
24164;DHT22;12319;49.204;8.116;2023-08-07T01:25:15;14.50;95.00
24164;DHT22;12319;49.204;8.116;2023-08-07T01:27:50;14.40;94.90
24164;DHT22;12319;49.204;8.116;2023-08-07T01:30:29;14.40;95.00
24164;DHT22;12319;49.204;8.116;2023-08-07T01:35:42;14.30;94.90
24164;DHT22;12319;49.204;8.116;2023-08-07T01:38:08;14.30;95.00
24164;DHT22;12319;49.204;8.116;2023-08-07T01:40:37;14.30;94.90
24164;DHT22;12319;49.204;8.116;2023-08-07T01:43:04;14.30;94.80
24164;DHT22;12319;49.204;8.116;2023-08-07T01:45:29;14.20;94.90
24164;DHT22;12319;49.204;8.116;2023-08-07T01:47:55;14.20;94.90
24164;DHT22;12319;49.204;8.116;2023-08-07T01:50:22;14.20;94.90
24164;DHT22;12319;49.204;8.116;2023-08-07T01:52:48;14.10;94.80
24164;DHT22;12319;49.204;8.116;2023-08-07T01:55:15;14.20;95.00
24164;DHT22;12319;49.204;8.116;2023-08-07T01:57:41;14.10;94.90
24164;DHT22;12319;49.204;8.116;2023-08-07T02:00:08;14.10;94.90
24164;DHT22;12319;49.204;8.116;2023-08-07T02:02:36;14.10;94.90
24164;DHT22;12319;49.204;8.116;2023-08-07T02:05:03;14.00;95.00
24164;DHT22;12319;49.204;8.116;2023-08-07T02:07:29;14.10;95.10
24164;DHT22;12319;49.204;8.116;2023-08-07T02:09:54;14.10;95.10
24164;DHT22;12319;49.204;8.116;2023-08-07T02:12:20;14.10;95.10
24164;DHT22;12319;49.204;8.116;2023-08-07T02:14:46;14.10;95.00
24164;DHT22;12319;49.204;8.116;2023-08-07T02:17:11;14.10;95.30
24164;DHT22;12319;49.204;8.116;2023-08-07T02:19:37;14.10;95.10
24164;DHT22;12319;49.204;8.116;2023-08-07T02:22:03;14.00;95.00
24164;DHT22;12319;49.204;8.116;2023-08-07T02:24:29;14.00;95.10
24164;DHT22;12319;49.204;8.116;2023-08-07T02:26:54;14.00;95.10
24164;DHT22;12319;49.204;8.116;2023-08-07T02:29:20;14.00;95.20
24164;DHT22;12319;49.204;8.116;2023-08-07T02:31:45;14.00;95.00
24164;DHT22;12319;49.204;8.116;2023-08-07T02:34:11;14.00;95.00
24164;DHT22;12319;49.204;8.116;2023-08-07T02:36:36;14.00;95.10
24164;DHT22;12319;49.204;8.116;2023-08-07T02:39:02;13.90;95.00
24164;DHT22;12319;49.204;8.116;2023-08-07T02:41:28;13.90;95.10
24164;DHT22;12319;49.204;8.116;2023-08-07T02:43:54;13.90;95.00
24164;DHT22;12319;49.204;8.116;2023-08-07T02:46:20;13.90;95.20
24164;DHT22;12319;49.204;8.116;2023-08-07T02:48:45;13.90;95.20
24164;DHT22;12319;49.204;8.116;2023-08-07T02:51:11;13.90;95.20
24164;DHT22;12319;49.204;8.116;2023-08-07T02:53:36;13.80;95.20
24164;DHT22;12319;49.204;8.116;2023-08-07T02:56:02;13.90;95.20
24164;DHT22;12319;49.204;8.116;2023-08-07T02:58:27;13.90;95.30
24164;DHT22;12319;49.204;8.116;2023-08-07T03:00:53;14.00;95.30
24164;DHT22;12319;49.204;8.116;2023-08-07T03:03:19;13.90;95.10
24164;DHT22;12319;49.204;8.116;2023-08-07T03:05:51;13.90;95.10
24164;DHT22;12319;49.204;8.116;2023-08-07T03:08:17;13.90;95.20
24164;DHT22;12319;49.204;8.116;2023-08-07T03:10:52;13.90;95.20
24164;DHT22;12319;49.204;8.116;2023-08-07T03:13:18;13.90;95.40
24164;DHT22;12319;49.204;8.116;2023-08-07T03:15:43;14.00;95.30
24164;DHT22;12319;49.204;8.116;2023-08-07T03:18:09;13.90;95.20
24164;DHT22;12319;49.204;8.116;2023-08-07T03:20:37;14.00;95.30
24164;DHT22;12319;49.204;8.116;2023-08-07T03:23:03;14.00;95.30
24164;DHT22;12319;49.204;8.116;2023-08-07T03:25:28;14.00;95.20
24164;DHT22;12319;49.204;8.116;2023-08-07T03:27:54;14.00;95.20
24164;DHT22;12319;49.204;8.116;2023-08-07T03:30:19;14.00;95.10
24164;DHT22;12319;49.204;8.116;2023-08-07T03:32:45;14.00;95.00
24164;DHT22;12319;49.204;8.116;2023-08-07T03:35:10;14.00;95.10
24164;DHT22;12319;49.204;8.116;2023-08-07T03:37:36;14.00;95.00
24164;DHT22;12319;49.204;8.116;2023-08-07T03:40:02;14.00;95.00
24164;DHT22;12319;49.204;8.116;2023-08-07T03:42:27;14.00;95.10
24164;DHT22;12319;49.204;8.116;2023-08-07T03:44:53;14.00;95.10
24164;DHT22;12319;49.204;8.116;2023-08-07T03:47:19;14.00;95.00
24164;DHT22;12319;49.204;8.116;2023-08-07T03:49:44;14.00;95.00
24164;DHT22;12319;49.204;8.116;2023-08-07T03:52:10;14.00;95.00
24164;DHT22;12319;49.204;8.116;2023-08-07T03:54:35;14.00;95.10
24164;DHT22;12319;49.204;8.116;2023-08-07T03:57:01;14.00;95.10
24164;DHT22;12319;49.204;8.116;2023-08-07T03:59:26;14.00;95.20
24164;DHT22;12319;49.204;8.116;2023-08-07T04:01:52;14.00;95.20
24164;DHT22;12319;49.204;8.116;2023-08-07T04:04:17;14.00;95.20
24164;DHT22;12319;49.204;8.116;2023-08-07T04:06:43;14.00;95.30
24164;DHT22;12319;49.204;8.116;2023-08-07T04:09:09;14.00;95.30
24164;DHT22;12319;49.204;8.116;2023-08-07T04:11:35;14.00;95.30
24164;DHT22;12319;49.204;8.116;2023-08-07T04:14:01;14.00;95.30
24164;DHT22;12319;49.204;8.116;2023-08-07T04:16:27;14.00;95.40
24164;DHT22;12319;49.204;8.116;2023-08-07T04:18:52;14.00;95.30
24164;DHT22;12319;49.204;8.116;2023-08-07T04:21:18;14.00;95.40
24164;DHT22;12319;49.204;8.116;2023-08-07T04:23:44;14.00;95.40
24164;DHT22;12319;49.204;8.116;2023-08-07T04:26:09;14.00;95.50
24164;DHT22;12319;49.204;8.116;2023-08-07T04:28:35;13.90;95.50
24164;DHT22;12319;49.204;8.116;2023-08-07T04:31:00;13.90;95.30
24164;DHT22;12319;49.204;8.116;2023-08-07T04:33:26;14.00;95.40
24164;DHT22;12319;49.204;8.116;2023-08-07T04:35:52;14.00;95.40
24164;DHT22;12319;49.204;8.116;2023-08-07T04:38:19;14.00;95.40
24164;DHT22;12319;49.204;8.116;2023-08-07T04:40:48;14.00;95.30
24164;DHT22;12319;49.204;8.116;2023-08-07T04:43:15;14.00;96.00
24164;DHT22;12319;49.204;8.116;2023-08-07T04:45:41;14.10;96.20
24164;DHT22;12319;49.204;8.116;2023-08-07T04:48:07;14.10;95.70
24164;DHT22;12319;49.204;8.116;2023-08-07T04:50:33;14.10;95.80
24164;DHT22;12319;49.204;8.116;2023-08-07T04:52:59;14.20;95.70
24164;DHT22;12319;49.204;8.116;2023-08-07T04:55:25;14.30;95.70
24164;DHT22;12319;49.204;8.116;2023-08-07T04:57:50;14.30;95.60
24164;DHT22;12319;49.204;8.116;2023-08-07T05:00:20;14.30;95.50
24164;DHT22;12319;49.204;8.116;2023-08-07T05:02:46;14.30;95.40
24164;DHT22;12319;49.204;8.116;2023-08-07T05:05:13;14.40;95.70
24164;DHT22;12319;49.204;8.116;2023-08-07T05:07:40;14.40;95.50
24164;DHT22;12319;49.204;8.116;2023-08-07T05:10:06;14.30;95.40
24164;DHT22;12319;49.204;8.116;2023-08-07T05:12:32;14.40;95.40
24164;DHT22;12319;49.204;8.116;2023-08-07T05:14:57;14.50;95.50
24164;DHT22;12319;49.204;8.116;2023-08-07T05:17:23;14.50;95.50
24164;DHT22;12319;49.204;8.116;2023-08-07T05:19:48;14.50;95.50
24164;DHT22;12319;49.204;8.116;2023-08-07T05:22:16;14.50;95.40
24164;DHT22;12319;49.204;8.116;2023-08-07T05:24:41;14.50;95.20
24164;DHT22;12319;49.204;8.116;2023-08-07T05:27:09;14.60;95.20
24164;DHT22;12319;49.204;8.116;2023-08-07T05:29:35;14.60;95.10
24164;DHT22;12319;49.204;8.116;2023-08-07T05:32:08;14.60;95.00
24164;DHT22;12319;49.204;8.116;2023-08-07T05:34:34;14.60;94.90
24164;DHT22;12319;49.204;8.116;2023-08-07T05:36:59;14.60;94.90
24164;DHT22;12319;49.204;8.116;2023-08-07T05:39:25;14.60;94.90
24164;DHT22;12319;49.204;8.116;2023-08-07T05:41:50;14.60;94.80
24164;DHT22;12319;49.204;8.116;2023-08-07T05:44:19;14.60;94.80
24164;DHT22;12319;49.204;8.116;2023-08-07T05:46:44;14.60;94.70
24164;DHT22;12319;49.204;8.116;2023-08-07T05:49:10;14.50;94.60
24164;DHT22;12319;49.204;8.116;2023-08-07T05:51:35;14.50;94.80
24164;DHT22;12319;49.204;8.116;2023-08-07T05:54:01;14.60;94.50
24164;DHT22;12319;49.204;8.116;2023-08-07T05:56:26;14.60;94.50
24164;DHT22;12319;49.204;8.116;2023-08-07T05:58:52;14.60;94.60
24164;DHT22;12319;49.204;8.116;2023-08-07T06:01:17;14.60;94.40
24164;DHT22;12319;49.204;8.116;2023-08-07T06:03:43;14.70;94.30
24164;DHT22;12319;49.204;8.116;2023-08-07T06:06:09;14.70;94.20
24164;DHT22;12319;49.204;8.116;2023-08-07T06:08:34;14.80;94.20
24164;DHT22;12319;49.204;8.116;2023-08-07T06:11:00;14.80;94.10
24164;DHT22;12319;49.204;8.116;2023-08-07T06:13:30;14.80;94.00
24164;DHT22;12319;49.204;8.116;2023-08-07T06:15:55;14.90;94.00
24164;DHT22;12319;49.204;8.116;2023-08-07T06:18:21;14.90;93.90
24164;DHT22;12319;49.204;8.116;2023-08-07T06:20:47;14.90;93.90
24164;DHT22;12319;49.204;8.116;2023-08-07T06:23:12;14.90;93.80
24164;DHT22;12319;49.204;8.116;2023-08-07T06:25:38;15.00;93.80
24164;DHT22;12319;49.204;8.116;2023-08-07T06:28:03;15.00;93.80
24164;DHT22;12319;49.204;8.116;2023-08-07T06:30:31;15.00;93.80
24164;DHT22;12319;49.204;8.116;2023-08-07T06:32:56;15.00;93.60
24164;DHT22;12319;49.204;8.116;2023-08-07T06:35:22;15.00;93.60
24164;DHT22;12319;49.204;8.116;2023-08-07T06:37:48;15.10;93.50
24164;DHT22;12319;49.204;8.116;2023-08-07T06:40:13;15.10;93.50
24164;DHT22;12319;49.204;8.116;2023-08-07T06:42:39;15.10;93.30
24164;DHT22;12319;49.204;8.116;2023-08-07T06:45:05;15.10;93.00
24164;DHT22;12319;49.204;8.116;2023-08-07T06:47:31;15.10;93.00
24164;DHT22;12319;49.204;8.116;2023-08-07T06:49:57;15.10;93.10
24164;DHT22;12319;49.204;8.116;2023-08-07T06:52:22;15.20;93.10
24164;DHT22;12319;49.204;8.116;2023-08-07T06:54:48;15.10;93.00
24164;DHT22;12319;49.204;8.116;2023-08-07T06:57:14;15.10;92.90
24164;DHT22;12319;49.204;8.116;2023-08-07T06:59:40;15.10;92.90
24164;DHT22;12319;49.204;8.116;2023-08-07T07:02:05;15.10;92.70
24164;DHT22;12319;49.204;8.116;2023-08-07T07:04:31;15.10;92.70
24164;DHT22;12319;49.204;8.116;2023-08-07T07:06:57;15.10;92.90
24164;DHT22;12319;49.204;8.116;2023-08-07T07:09:23;15.10;92.80
24164;DHT22;12319;49.204;8.116;2023-08-07T07:11:48;15.10;92.60
24164;DHT22;12319;49.204;8.116;2023-08-07T07:14:14;15.10;92.40
24164;DHT22;12319;49.204;8.116;2023-08-07T07:16:39;15.10;92.60
24164;DHT22;12319;49.204;8.116;2023-08-07T07:19:07;15.20;92.60
24164;DHT22;12319;49.204;8.116;2023-08-07T07:21:34;15.20;92.50
24164;DHT22;12319;49.204;8.116;2023-08-07T07:24:01;15.20;92.50
24164;DHT22;12319;49.204;8.116;2023-08-07T07:26:27;15.20;92.40
24164;DHT22;12319;49.204;8.116;2023-08-07T07:28:52;15.20;92.50
24164;DHT22;12319;49.204;8.116;2023-08-07T07:31:18;15.30;92.50
24164;DHT22;12319;49.204;8.116;2023-08-07T07:33:43;15.40;92.80
24164;DHT22;12319;49.204;8.116;2023-08-07T07:36:18;15.40;92.30
24164;DHT22;12319;49.204;8.116;2023-08-07T07:38:47;15.50;92.20
24164;DHT22;12319;49.204;8.116;2023-08-07T07:41:13;15.50;92.20
24164;DHT22;12319;49.204;8.116;2023-08-07T07:43:39;15.60;92.30
24164;DHT22;12319;49.204;8.116;2023-08-07T07:46:04;15.70;92.10
24164;DHT22;12319;49.204;8.116;2023-08-07T07:48:30;15.70;91.90
24164;DHT22;12319;49.204;8.116;2023-08-07T07:50:58;15.70;91.80
24164;DHT22;12319;49.204;8.116;2023-08-07T07:53:24;15.80;91.80
24164;DHT22;12319;49.204;8.116;2023-08-07T07:55:50;15.90;91.90
24164;DHT22;12319;49.204;8.116;2023-08-07T07:58:15;15.90;91.80
24164;DHT22;12319;49.204;8.116;2023-08-07T08:00:41;15.90;91.60
24164;DHT22;12319;49.204;8.116;2023-08-07T08:03:07;15.90;91.50
24164;DHT22;12319;49.204;8.116;2023-08-07T08:05:33;16.00;91.40
24164;DHT22;12319;49.204;8.116;2023-08-07T08:08:00;16.10;91.40
24164;DHT22;12319;49.204;8.116;2023-08-07T08:10:27;16.20;91.00
24164;DHT22;12319;49.204;8.116;2023-08-07T08:12:54;16.20;91.10
24164;DHT22;12319;49.204;8.116;2023-08-07T08:15:20;16.30;91.00
24164;DHT22;12319;49.204;8.116;2023-08-07T08:17:46;16.30;90.70
24164;DHT22;12319;49.204;8.116;2023-08-07T08:20:12;16.40;90.60
24164;DHT22;12319;49.204;8.116;2023-08-07T08:22:41;16.50;90.30
24164;DHT22;12319;49.204;8.116;2023-08-07T08:25:06;16.60;90.00
24164;DHT22;12319;49.204;8.116;2023-08-07T08:27:32;16.60;90.00
24164;DHT22;12319;49.204;8.116;2023-08-07T08:29:58;16.70;89.60
24164;DHT22;12319;49.204;8.116;2023-08-07T08:32:23;16.70;89.20
24164;DHT22;12319;49.204;8.116;2023-08-07T08:34:49;16.80;88.70
24164;DHT22;12319;49.204;8.116;2023-08-07T08:37:17;16.90;88.90
24164;DHT22;12319;49.204;8.116;2023-08-07T08:39:42;17.00;88.20
24164;DHT22;12319;49.204;8.116;2023-08-07T08:42:11;17.10;88.50
24164;DHT22;12319;49.204;8.116;2023-08-07T08:44:39;17.30;88.20
24164;DHT22;12319;49.204;8.116;2023-08-07T08:47:06;17.40;87.70
24164;DHT22;12319;49.204;8.116;2023-08-07T08:49:45;17.50;87.00
24164;DHT22;12319;49.204;8.116;2023-08-07T08:52:12;17.60;86.40
24164;DHT22;12319;49.204;8.116;2023-08-07T08:54:38;17.60;85.20
24164;DHT22;12319;49.204;8.116;2023-08-07T08:57:06;17.70;85.60
24164;DHT22;12319;49.204;8.116;2023-08-07T08:59:32;17.70;85.90
24164;DHT22;12319;49.204;8.116;2023-08-07T09:01:59;17.80;85.80
24164;DHT22;12319;49.204;8.116;2023-08-07T09:04:24;17.80;85.20
24164;DHT22;12319;49.204;8.116;2023-08-07T09:06:50;17.70;84.40
24164;DHT22;12319;49.204;8.116;2023-08-07T09:09:17;17.70;85.00
24164;DHT22;12319;49.204;8.116;2023-08-07T09:11:45;17.60;85.00
24164;DHT22;12319;49.204;8.116;2023-08-07T09:14:15;17.60;84.40
24164;DHT22;12319;49.204;8.116;2023-08-07T09:16:42;17.60;84.50
24164;DHT22;12319;49.204;8.116;2023-08-07T09:19:08;17.70;84.70
24164;DHT22;12319;49.204;8.116;2023-08-07T09:21:34;17.70;84.00
24164;DHT22;12319;49.204;8.116;2023-08-07T09:24:00;17.80;83.90
24164;DHT22;12319;49.204;8.116;2023-08-07T09:26:25;17.90;83.80
24164;DHT22;12319;49.204;8.116;2023-08-07T09:28:52;18.10;83.30
24164;DHT22;12319;49.204;8.116;2023-08-07T09:31:19;18.10;82.30
24164;DHT22;12319;49.204;8.116;2023-08-07T09:33:47;18.20;82.30
24164;DHT22;12319;49.204;8.116;2023-08-07T09:36:12;18.40;82.50
24164;DHT22;12319;49.204;8.116;2023-08-07T09:38:39;18.50;82.20
24164;DHT22;12319;49.204;8.116;2023-08-07T09:41:05;18.60;82.00
24164;DHT22;12319;49.204;8.116;2023-08-07T09:43:37;18.80;81.50
24164;DHT22;12319;49.204;8.116;2023-08-07T09:46:06;18.90;81.60
24164;DHT22;12319;49.204;8.116;2023-08-07T09:48:39;19.00;80.30
24164;DHT22;12319;49.204;8.116;2023-08-07T09:51:05;19.20;79.50
24164;DHT22;12319;49.204;8.116;2023-08-07T09:53:31;19.30;79.20
24164;DHT22;12319;49.204;8.116;2023-08-07T09:55:58;19.40;78.20
24164;DHT22;12319;49.204;8.116;2023-08-07T09:58:24;19.50;77.70
24164;DHT22;12319;49.204;8.116;2023-08-07T10:00:50;19.50;77.00
24164;DHT22;12319;49.204;8.116;2023-08-07T10:03:19;19.50;76.20
24164;DHT22;12319;49.204;8.116;2023-08-07T10:05:45;19.50;77.00
24164;DHT22;12319;49.204;8.116;2023-08-07T10:08:12;19.50;76.90
24164;DHT22;12319;49.204;8.116;2023-08-07T10:10:38;19.40;76.10
24164;DHT22;12319;49.204;8.116;2023-08-07T10:13:04;19.40;76.00
24164;DHT22;12319;49.204;8.116;2023-08-07T10:15:32;19.30;76.10
24164;DHT22;12319;49.204;8.116;2023-08-07T10:17:58;19.20;76.30
24164;DHT22;12319;49.204;8.116;2023-08-07T10:20:27;19.20;75.30
24164;DHT22;12319;49.204;8.116;2023-08-07T10:22:56;18.90;73.80
24164;DHT22;12319;49.204;8.116;2023-08-07T10:25:24;18.90;75.30
24164;DHT22;12319;49.204;8.116;2023-08-07T10:27:52;18.90;75.10
24164;DHT22;12319;49.204;8.116;2023-08-07T10:30:19;18.80;75.00
24164;DHT22;12319;49.204;8.116;2023-08-07T10:32:45;18.90;75.50
24164;DHT22;12319;49.204;8.116;2023-08-07T10:35:25;18.90;75.40
24164;DHT22;12319;49.204;8.116;2023-08-07T10:37:52;18.90;75.20
24164;DHT22;12319;49.204;8.116;2023-08-07T10:40:19;19.00;75.90
24164;DHT22;12319;49.204;8.116;2023-08-07T10:42:57;19.10;75.40
24164;DHT22;12319;49.204;8.116;2023-08-07T10:45:24;19.30;74.00
24164;DHT22;12319;49.204;8.116;2023-08-07T10:48:06;19.40;73.80
24164;DHT22;12319;49.204;8.116;2023-08-07T10:50:48;19.60;73.30
24164;DHT22;12319;49.204;8.116;2023-08-07T10:53:34;19.80;73.20
24164;DHT22;12319;49.204;8.116;2023-08-07T10:56:04;19.90;72.30
24164;DHT22;12319;49.204;8.116;2023-08-07T10:58:32;20.00;71.90
24164;DHT22;12319;49.204;8.116;2023-08-07T11:01:17;20.20;70.40
24164;DHT22;12319;49.204;8.116;2023-08-07T11:03:54;20.30;70.10
24164;DHT22;12319;49.204;8.116;2023-08-07T11:06:29;20.40;69.10
24164;DHT22;12319;49.204;8.116;2023-08-07T11:08:57;20.50;68.50
24164;DHT22;12319;49.204;8.116;2023-08-07T11:11:23;20.80;70.10
24164;DHT22;12319;49.204;8.116;2023-08-07T11:13:49;21.00;70.20
24164;DHT22;12319;49.204;8.116;2023-08-07T11:16:15;21.20;68.40
24164;DHT22;12319;49.204;8.116;2023-08-07T11:18:42;21.40;68.10
24164;DHT22;12319;49.204;8.116;2023-08-07T11:21:11;21.60;67.40
24164;DHT22;12319;49.204;8.116;2023-08-07T11:23:40;21.80;67.80
24164;DHT22;12319;49.204;8.116;2023-08-07T11:26:07;22.00;65.00
24164;DHT22;12319;49.204;8.116;2023-08-07T11:28:33;22.20;64.70
24164;DHT22;12319;49.204;8.116;2023-08-07T11:30:58;22.30;65.20
24164;DHT22;12319;49.204;8.116;2023-08-07T11:33:25;22.40;64.30
24164;DHT22;12319;49.204;8.116;2023-08-07T11:35:51;22.40;64.20
24164;DHT22;12319;49.204;8.116;2023-08-07T11:38:34;22.40;62.90
24164;DHT22;12319;49.204;8.116;2023-08-07T11:41:05;22.30;64.80
24164;DHT22;12319;49.204;8.116;2023-08-07T11:43:34;22.30;63.10
24164;DHT22;12319;49.204;8.116;2023-08-07T11:46:04;22.30;61.10
24164;DHT22;12319;49.204;8.116;2023-08-07T11:48:32;22.30;61.20
24164;DHT22;12319;49.204;8.116;2023-08-07T11:50:59;22.50;62.40
24164;DHT22;12319;49.204;8.116;2023-08-07T11:53:25;22.60;62.00
24164;DHT22;12319;49.204;8.116;2023-08-07T11:55:59;22.80;60.90
24164;DHT22;12319;49.204;8.116;2023-08-07T11:58:26;23.20;60.60
24164;DHT22;12319;49.204;8.116;2023-08-07T12:00:53;23.50;62.70
24164;DHT22;12319;49.204;8.116;2023-08-07T12:03:27;23.70;61.70
24164;DHT22;12319;49.204;8.116;2023-08-07T12:05:54;24.00;59.80
24164;DHT22;12319;49.204;8.116;2023-08-07T12:08:20;24.10;58.30
24164;DHT22;12319;49.204;8.116;2023-08-07T12:10:49;24.10;60.20
24164;DHT22;12319;49.204;8.116;2023-08-07T12:13:15;24.10;60.20
24164;DHT22;12319;49.204;8.116;2023-08-07T12:15:41;24.10;58.60
24164;DHT22;12319;49.204;8.116;2023-08-07T12:18:07;24.10;58.50
24164;DHT22;12319;49.204;8.116;2023-08-07T12:20:33;24.20;59.60
24164;DHT22;12319;49.204;8.116;2023-08-07T12:22:59;24.40;60.30
24164;DHT22;12319;49.204;8.116;2023-08-07T12:25:24;24.80;59.60
24164;DHT22;12319;49.204;8.116;2023-08-07T12:27:50;25.00;58.80
24164;DHT22;12319;49.204;8.116;2023-08-07T12:30:15;25.00;58.00
24164;DHT22;12319;49.204;8.116;2023-08-07T12:32:41;24.90;56.00
24164;DHT22;12319;49.204;8.116;2023-08-07T12:35:07;24.70;56.30
24164;DHT22;12319;49.204;8.116;2023-08-07T12:37:36;24.60;57.60
24164;DHT22;12319;49.204;8.116;2023-08-07T12:40:01;24.30;56.60
24164;DHT22;12319;49.204;8.116;2023-08-07T12:42:28;24.10;57.30
24164;DHT22;12319;49.204;8.116;2023-08-07T12:44:53;24.10;57.20
24164;DHT22;12319;49.204;8.116;2023-08-07T12:47:19;24.40;57.50
24164;DHT22;12319;49.204;8.116;2023-08-07T12:49:45;24.80;57.10
24164;DHT22;12319;49.204;8.116;2023-08-07T12:52:13;25.20;56.80
24164;DHT22;12319;49.204;8.116;2023-08-07T12:54:38;25.50;57.60
24164;DHT22;12319;49.204;8.116;2023-08-07T12:57:04;25.80;56.40
24164;DHT22;12319;49.204;8.116;2023-08-07T12:59:29;25.80;55.60
24164;DHT22;12319;49.204;8.116;2023-08-07T13:01:55;25.70;54.50
24164;DHT22;12319;49.204;8.116;2023-08-07T13:04:20;25.40;54.60
24164;DHT22;12319;49.204;8.116;2023-08-07T13:06:46;25.10;55.00
24164;DHT22;12319;49.204;8.116;2023-08-07T13:09:11;24.80;54.50
24164;DHT22;12319;49.204;8.116;2023-08-07T13:11:37;24.50;54.60
24164;DHT22;12319;49.204;8.116;2023-08-07T13:14:02;24.30;55.90
24164;DHT22;12319;49.204;8.116;2023-08-07T13:16:28;24.10;55.50
24164;DHT22;12319;49.204;8.116;2023-08-07T13:18:54;24.10;56.50
24164;DHT22;12319;49.204;8.116;2023-08-07T13:21:19;24.00;56.10
24164;DHT22;12319;49.204;8.116;2023-08-07T13:23:45;24.30;55.70
24164;DHT22;12319;49.204;8.116;2023-08-07T13:26:10;24.70;55.60
24164;DHT22;12319;49.204;8.116;2023-08-07T13:28:36;25.20;56.10
24164;DHT22;12319;49.204;8.116;2023-08-07T13:31:01;25.60;55.10
24164;DHT22;12319;49.204;8.116;2023-08-07T13:33:27;26.00;53.60
24164;DHT22;12319;49.204;8.116;2023-08-07T13:35:52;26.40;54.30
24164;DHT22;12319;49.204;8.116;2023-08-07T13:38:18;26.70;54.20
24164;DHT22;12319;49.204;8.116;2023-08-07T13:40:44;26.80;53.00
24164;DHT22;12319;49.204;8.116;2023-08-07T13:43:10;27.00;52.90
24164;DHT22;12319;49.204;8.116;2023-08-07T13:45:36;27.00;52.90
24164;DHT22;12319;49.204;8.116;2023-08-07T13:48:02;26.80;52.00
24164;DHT22;12319;49.204;8.116;2023-08-07T13:50:28;26.40;51.80
24164;DHT22;12319;49.204;8.116;2023-08-07T13:52:53;26.00;51.40
24164;DHT22;12319;49.204;8.116;2023-08-07T13:55:19;25.40;52.00
24164;DHT22;12319;49.204;8.116;2023-08-07T13:57:44;24.90;52.90
24164;DHT22;12319;49.204;8.116;2023-08-07T14:00:10;24.40;53.50
24164;DHT22;12319;49.204;8.116;2023-08-07T14:02:36;24.00;54.00
24164;DHT22;12319;49.204;8.116;2023-08-07T14:05:02;23.60;54.40
24164;DHT22;12319;49.204;8.116;2023-08-07T14:07:27;23.60;54.60
24164;DHT22;12319;49.204;8.116;2023-08-07T14:09:53;24.00;55.10
24164;DHT22;12319;49.204;8.116;2023-08-07T14:12:19;24.60;55.80
24164;DHT22;12319;49.204;8.116;2023-08-07T14:14:44;25.20;54.50
24164;DHT22;12319;49.204;8.116;2023-08-07T14:17:10;25.90;54.20
24164;DHT22;12319;49.204;8.116;2023-08-07T14:19:35;26.20;53.30
24164;DHT22;12319;49.204;8.116;2023-08-07T14:22:01;26.00;52.00
24164;DHT22;12319;49.204;8.116;2023-08-07T14:24:26;25.70;53.40
24164;DHT22;12319;49.204;8.116;2023-08-07T14:26:52;25.20;52.70
24164;DHT22;12319;49.204;8.116;2023-08-07T14:29:17;24.70;53.30
24164;DHT22;12319;49.204;8.116;2023-08-07T14:31:43;24.30;53.60
24164;DHT22;12319;49.204;8.116;2023-08-07T14:34:08;24.40;55.00
24164;DHT22;12319;49.204;8.116;2023-08-07T14:36:35;24.80;54.90
24164;DHT22;12319;49.204;8.116;2023-08-07T14:39:00;25.20;54.60
24164;DHT22;12319;49.204;8.116;2023-08-07T14:41:26;25.30;53.70
24164;DHT22;12319;49.204;8.116;2023-08-07T14:43:52;25.50;53.40
24164;DHT22;12319;49.204;8.116;2023-08-07T14:46:17;25.70;53.60
24164;DHT22;12319;49.204;8.116;2023-08-07T14:48:43;25.80;52.50
24164;DHT22;12319;49.204;8.116;2023-08-07T14:51:09;26.00;52.40
24164;DHT22;12319;49.204;8.116;2023-08-07T14:53:35;25.90;53.10
24164;DHT22;12319;49.204;8.116;2023-08-07T14:56:00;25.60;52.60
24164;DHT22;12319;49.204;8.116;2023-08-07T14:58:26;25.30;52.60
24164;DHT22;12319;49.204;8.116;2023-08-07T15:00:55;25.00;53.60
24164;DHT22;12319;49.204;8.116;2023-08-07T15:03:21;24.80;53.30
24164;DHT22;12319;49.204;8.116;2023-08-07T15:05:46;24.70;54.00
24164;DHT22;12319;49.204;8.116;2023-08-07T15:08:12;24.50;54.30
24164;DHT22;12319;49.204;8.116;2023-08-07T15:10:37;24.40;54.70
24164;DHT22;12319;49.204;8.116;2023-08-07T15:13:05;24.30;54.90
24164;DHT22;12319;49.204;8.116;2023-08-07T15:15:30;24.10;54.80
24164;DHT22;12319;49.204;8.116;2023-08-07T15:17:56;24.00;54.60
24164;DHT22;12319;49.204;8.116;2023-08-07T15:20:21;23.80;54.70
24164;DHT22;12319;49.204;8.116;2023-08-07T15:22:47;23.60;55.10
24164;DHT22;12319;49.204;8.116;2023-08-07T15:25:13;23.60;55.10
24164;DHT22;12319;49.204;8.116;2023-08-07T15:27:39;23.50;55.00
24164;DHT22;12319;49.204;8.116;2023-08-07T15:30:05;23.40;55.10